sensor_id;sensor_type;location;lat;lon;timestamp;P1;durP1;ratioP1;P2;durP2;ratioP2
33459;SDS011;19795;53.160;6.612;2023-07-13T03:45:33;1999.90;;;999.90;;
33459;SDS011;19795;53.160;6.612;2023-07-13T03:47:59;1999.90;;;999.90;;
33459;SDS011;19795;53.160;6.612;2023-07-13T03:50:24;1999.90;;;999.90;;
33459;SDS011;19795;53.160;6.612;2023-07-13T03:52:50;1999.90;;;999.90;;
33459;SDS011;19795;53.160;6.612;2023-07-13T03:55:16;1999.90;;;999.90;;
33459;SDS011;19795;53.160;6.612;2023-07-13T03:57:41;1999.90;;;999.90;;
33459;SDS011;19795;53.160;6.612;2023-07-13T04:00:07;1999.90;;;999.90;;
33459;SDS011;19795;53.160;6.612;2023-07-13T04:02:33;1999.90;;;999.90;;
33459;SDS011;19795;53.160;6.612;2023-07-13T04:04:59;1999.90;;;999.90;;
33459;SDS011;19795;53.160;6.612;2023-07-13T04:07:25;1999.90;;;999.90;;
33459;SDS011;19795;53.160;6.612;2023-07-13T04:09:51;1999.90;;;999.90;;
33459;SDS011;19795;53.160;6.612;2023-07-13T04:12:18;1999.90;;;999.90;;
33459;SDS011;19795;53.160;6.612;2023-07-13T04:14:44;1999.90;;;999.90;;
33459;SDS011;19795;53.160;6.612;2023-07-13T04:17:09;1999.90;;;999.90;;
33459;SDS011;19795;53.160;6.612;2023-07-13T04:19:35;1999.90;;;999.90;;
33459;SDS011;19795;53.160;6.612;2023-07-13T04:22:01;1999.90;;;999.90;;
33459;SDS011;19795;53.160;6.612;2023-07-13T04:24:26;1999.90;;;999.90;;
33459;SDS011;19795;53.160;6.612;2023-07-13T04:26:52;1999.90;;;999.90;;
33459;SDS011;19795;53.160;6.612;2023-07-13T04:29:18;1999.90;;;999.90;;
33459;SDS011;19795;53.160;6.612;2023-07-13T04:31:43;1999.90;;;999.90;;
33459;SDS011;19795;53.160;6.612;2023-07-13T04:34:09;1999.90;;;999.90;;
33459;SDS011;19795;53.160;6.612;2023-07-13T04:36:34;1999.90;;;999.90;;
33459;SDS011;19795;53.160;6.612;2023-07-13T04:39:02;1999.90;;;999.90;;
33459;SDS011;19795;53.160;6.612;2023-07-13T04:41:28;1999.90;;;999.90;;
33459;SDS011;19795;53.160;6.612;2023-07-13T04:43:54;1999.90;;;999.90;;
33459;SDS011;19795;53.160;6.612;2023-07-13T04:46:19;1999.90;;;999.90;;
33459;SDS011;19795;53.160;6.612;2023-07-13T04:48:45;1999.90;;;999.90;;
33459;SDS011;19795;53.160;6.612;2023-07-13T04:51:11;1999.90;;;999.90;;
33459;SDS011;19795;53.160;6.612;2023-07-13T04:53:36;1999.90;;;999.90;;
33459;SDS011;19795;53.160;6.612;2023-07-13T04:56:02;1999.90;;;999.90;;
33459;SDS011;19795;53.160;6.612;2023-07-13T04:58:29;1999.90;;;999.90;;
33459;SDS011;19795;53.160;6.612;2023-07-13T05:01:02;1999.90;;;999.90;;
33459;SDS011;19795;53.160;6.612;2023-07-13T05:03:29;1999.90;;;999.90;;
33459;SDS011;19795;53.160;6.612;2023-07-13T05:05:55;1999.90;;;999.90;;
33459;SDS011;19795;53.160;6.612;2023-07-13T05:10:54;1999.90;;;999.90;;
33459;SDS011;19795;53.160;6.612;2023-07-13T05:13:20;1999.90;;;999.90;;
33459;SDS011;19795;53.160;6.612;2023-07-13T05:15:47;1548.57;;;793.65;;
33459;SDS011;19795;53.160;6.612;2023-07-13T05:18:20;366.63;;;314.88;;
33459;SDS011;19795;53.160;6.612;2023-07-13T05:20:46;593.17;;;404.98;;
33459;SDS011;19795;53.160;6.612;2023-07-13T05:23:12;544.78;;;351.48;;
33459;SDS011;19795;53.160;6.612;2023-07-13T05:25:37;848.00;;;549.22;;
33459;SDS011;19795;53.160;6.612;2023-07-13T05:28:04;858.28;;;587.42;;
33459;SDS011;19795;53.160;6.612;2023-07-13T05:30:29;1061.85;;;727.60;;
33459;SDS011;19795;53.160;6.612;2023-07-13T05:32:55;1095.88;;;764.45;;
33459;SDS011;19795;53.160;6.612;2023-07-13T05:35:21;1036.03;;;801.33;;
33459;SDS011;19795;53.160;6.612;2023-07-13T05:37:46;1088.32;;;881.38;;
33459;SDS011;19795;53.160;6.612;2023-07-13T05:40:12;1050.68;;;795.42;;
33459;SDS011;19795;53.160;6.612;2023-07-13T05:42:38;1159.90;;;920.85;;
33459;SDS011;19795;53.160;6.612;2023-07-13T05:45:03;1182.05;;;939.08;;
33459;SDS011;19795;53.160;6.612;2023-07-13T05:47:30;1148.50;;;931.17;;
33459;SDS011;19795;53.160;6.612;2023-07-13T05:49:55;1204.85;;;945.05;;
33459;SDS011;19795;53.160;6.612;2023-07-13T05:52:21;1183.70;;;954.25;;
33459;SDS011;19795;53.160;6.612;2023-07-13T05:54:46;1094.45;;;950.83;;
33459;SDS011;19795;53.160;6.612;2023-07-13T05:57:12;1123.60;;;956.20;;
33459;SDS011;19795;53.160;6.612;2023-07-13T05:59:38;1021.70;;;921.83;;
33459;SDS011;19795;53.160;6.612;2023-07-13T06:02:03;997.20;;;901.58;;
33459;SDS011;19795;53.160;6.612;2023-07-13T06:04:29;974.10;;;884.08;;
33459;SDS011;19795;53.160;6.612;2023-07-13T06:06:55;985.28;;;894.50;;
33459;SDS011;19795;53.160;6.612;2023-07-13T06:09:21;957.50;;;873.88;;
33459;SDS011;19795;53.160;6.612;2023-07-13T06:11:47;929.13;;;851.05;;
33459;SDS011;19795;53.160;6.612;2023-07-13T06:14:12;917.10;;;842.40;;
33459;SDS011;19795;53.160;6.612;2023-07-13T06:16:39;918.88;;;845.75;;
33459;SDS011;19795;53.160;6.612;2023-07-13T06:19:05;835.05;;;773.40;;
33459;SDS011;19795;53.160;6.612;2023-07-13T06:21:31;830.47;;;768.75;;
33459;SDS011;19795;53.160;6.612;2023-07-13T06:23:56;778.53;;;724.97;;
33459;SDS011;19795;53.160;6.612;2023-07-13T06:26:22;748.88;;;698.72;;
33459;SDS011;19795;53.160;6.612;2023-07-13T06:28:48;764.88;;;712.58;;
33459;SDS011;19795;53.160;6.612;2023-07-13T06:31:14;733.38;;;683.22;;
33459;SDS011;19795;53.160;6.612;2023-07-13T06:33:40;729.92;;;680.90;;
33459;SDS011;19795;53.160;6.612;2023-07-13T06:36:06;747.00;;;696.88;;
33459;SDS011;19795;53.160;6.612;2023-07-13T06:38:33;728.15;;;677.47;;
33459;SDS011;19795;53.160;6.612;2023-07-13T06:40:59;740.08;;;690.95;;
33459;SDS011;19795;53.160;6.612;2023-07-13T06:43:24;700.63;;;653.80;;
33459;SDS011;19795;53.160;6.612;2023-07-13T06:45:51;720.03;;;672.40;;
33459;SDS011;19795;53.160;6.612;2023-07-13T06:48:20;749.33;;;698.30;;
33459;SDS011;19795;53.160;6.612;2023-07-13T06:50:46;644.13;;;603.13;;
33459;SDS011;19795;53.160;6.612;2023-07-13T06:53:13;797.50;;;737.47;;
33459;SDS011;19795;53.160;6.612;2023-07-13T06:55:38;686.78;;;640.92;;
33459;SDS011;19795;53.160;6.612;2023-07-13T06:58:04;688.17;;;642.70;;
33459;SDS011;19795;53.160;6.612;2023-07-13T07:00:31;737.25;;;687.33;;
33459;SDS011;19795;53.160;6.612;2023-07-13T07:02:56;895.45;;;821.38;;
33459;SDS011;19795;53.160;6.612;2023-07-13T07:05:22;673.22;;;629.65;;
33459;SDS011;19795;53.160;6.612;2023-07-13T07:07:49;718.47;;;671.10;;
33459;SDS011;19795;53.160;6.612;2023-07-13T07:10:15;724.45;;;676.28;;
33459;SDS011;19795;53.160;6.612;2023-07-13T07:12:41;744.20;;;691.85;;
33459;SDS011;19795;53.160;6.612;2023-07-13T07:15:06;697.80;;;653.10;;
33459;SDS011;19795;53.160;6.612;2023-07-13T07:17:32;662.97;;;620.92;;
33459;SDS011;19795;53.160;6.612;2023-07-13T07:19:58;653.20;;;611.85;;
33459;SDS011;19795;53.160;6.612;2023-07-13T07:22:23;650.47;;;609.38;;
33459;SDS011;19795;53.160;6.612;2023-07-13T07:24:52;719.42;;;667.90;;
33459;SDS011;19795;53.160;6.612;2023-07-13T07:27:18;748.45;;;683.25;;
33459;SDS011;19795;53.160;6.612;2023-07-13T07:29:44;745.88;;;692.75;;
33459;SDS011;19795;53.160;6.612;2023-07-13T07:32:10;855.47;;;787.92;;
33459;SDS011;19795;53.160;6.612;2023-07-13T07:34:35;842.55;;;777.60;;
33459;SDS011;19795;53.160;6.612;2023-07-13T07:37:01;865.50;;;796.65;;
33459;SDS011;19795;53.160;6.612;2023-07-13T07:39:28;914.63;;;838.75;;
33459;SDS011;19795;53.160;6.612;2023-07-13T07:41:53;914.85;;;838.97;;
33459;SDS011;19795;53.160;6.612;2023-07-13T07:44:19;933.33;;;852.03;;
33459;SDS011;19795;53.160;6.612;2023-07-13T07:46:45;974.92;;;881.92;;
33459;SDS011;19795;53.160;6.612;2023-07-13T07:49:29;1020.60;;;919.47;;
33459;SDS011;19795;53.160;6.612;2023-07-13T07:51:55;1004.42;;;896.38;;
33459;SDS011;19795;53.160;6.612;2023-07-13T07:54:23;1034.22;;;922.80;;
33459;SDS011;19795;53.160;6.612;2023-07-13T07:56:49;984.50;;;880.22;;
33459;SDS011;19795;53.160;6.612;2023-07-13T07:59:14;1033.78;;;924.53;;
33459;SDS011;19795;53.160;6.612;2023-07-13T08:01:40;771.65;;;683.83;;
33459;SDS011;19795;53.160;6.612;2023-07-13T08:04:06;975.55;;;878.47;;
33459;SDS011;19795;53.160;6.612;2023-07-13T08:06:37;1999.90;;;999.90;;
33459;SDS011;19795;53.160;6.612;2023-07-13T08:09:02;940.85;;;847.10;;
33459;SDS011;19795;53.160;6.612;2023-07-13T08:11:29;675.85;;;485.67;;
33459;SDS011;19795;53.160;6.612;2023-07-13T08:13:55;667.47;;;444.10;;
33459;SDS011;19795;53.160;6.612;2023-07-13T08:16:21;820.80;;;588.55;;
33459;SDS011;19795;53.160;6.612;2023-07-13T08:18:47;1051.40;;;939.85;;
33459;SDS011;19795;53.160;6.612;2023-07-13T08:21:12;967.30;;;864.20;;
33459;SDS011;19795;53.160;6.612;2023-07-13T08:23:38;1047.68;;;939.50;;
33459;SDS011;19795;53.160;6.612;2023-07-13T08:26:04;1099.15;;;862.50;;
33459;SDS011;19795;53.160;6.612;2023-07-13T08:28:30;1057.65;;;944.85;;
33459;SDS011;19795;53.160;6.612;2023-07-13T08:31:00;992.67;;;899.05;;
33459;SDS011;19795;53.160;6.612;2023-07-13T08:33:27;990.67;;;897.05;;
33459;SDS011;19795;53.160;6.612;2023-07-13T08:35:53;940.45;;;856.70;;
33459;SDS011;19795;53.160;6.612;2023-07-13T08:38:18;960.55;;;872.95;;
33459;SDS011;19795;53.160;6.612;2023-07-13T08:40:45;916.20;;;837.25;;
33459;SDS011;19795;53.160;6.612;2023-07-13T08:43:18;935.42;;;850.42;;
33459;SDS011;19795;53.160;6.612;2023-07-13T08:45:51;843.55;;;777.03;;
33459;SDS011;19795;53.160;6.612;2023-07-13T08:48:22;905.30;;;829.70;;
33459;SDS011;19795;53.160;6.612;2023-07-13T08:53:38;999.35;;;898.42;;
33459;SDS011;19795;53.160;6.612;2023-07-13T08:56:14;939.80;;;853.70;;
33459;SDS011;19795;53.160;6.612;2023-07-13T08:58:44;855.33;;;786.17;;
33459;SDS011;19795;53.160;6.612;2023-07-13T09:01:15;897.63;;;822.67;;
33459;SDS011;19795;53.160;6.612;2023-07-13T09:09:20;971.35;;;881.05;;
33459;SDS011;19795;53.160;6.612;2023-07-13T09:12:10;913.42;;;834.58;;
33459;SDS011;19795;53.160;6.612;2023-07-13T09:14:53;949.72;;;865.10;;
33459;SDS011;19795;53.160;6.612;2023-07-13T09:20:41;855.47;;;783.80;;
33459;SDS011;19795;53.160;6.612;2023-07-13T09:22:50;1000.53;;;904.70;;
33459;SDS011;19795;53.160;6.612;2023-07-13T09:25:23;881.45;;;808.97;;
33459;SDS011;19795;53.160;6.612;2023-07-13T09:27:54;960.42;;;874.17;;
33459;SDS011;19795;53.160;6.612;2023-07-13T09:33:47;882.70;;;809.97;;
33459;SDS011;19795;53.160;6.612;2023-07-13T09:38:57;815.42;;;752.53;;
33459;SDS011;19795;53.160;6.612;2023-07-13T09:44:11;811.17;;;751.58;;
33459;SDS011;19795;53.160;6.612;2023-07-13T09:46:52;889.13;;;813.33;;
33459;SDS011;19795;53.160;6.612;2023-07-13T09:49:22;876.03;;;804.30;;
33459;SDS011;19795;53.160;6.612;2023-07-13T09:51:59;921.67;;;836.70;;
33459;SDS011;19795;53.160;6.612;2023-07-13T09:54:27;939.80;;;854.67;;
33459;SDS011;19795;53.160;6.612;2023-07-13T09:56:56;893.03;;;819.67;;
33459;SDS011;19795;53.160;6.612;2023-07-13T09:59:26;930.47;;;847.63;;
33459;SDS011;19795;53.160;6.612;2023-07-13T10:02:01;955.90;;;866.30;;
33459;SDS011;19795;53.160;6.612;2023-07-13T10:04:33;896.78;;;814.25;;
33459;SDS011;19795;53.160;6.612;2023-07-13T10:07:09;942.60;;;858.58;;
33459;SDS011;19795;53.160;6.612;2023-07-13T10:09:40;854.28;;;781.40;;
33459;SDS011;19795;53.160;6.612;2023-07-13T10:12:15;766.97;;;710.75;;
33459;SDS011;19795;53.160;6.612;2023-07-13T10:14:42;787.28;;;729.90;;
33459;SDS011;19795;53.160;6.612;2023-07-13T10:17:08;778.28;;;720.95;;
33459;SDS011;19795;53.160;6.612;2023-07-13T10:19:38;822.67;;;757.85;;
33459;SDS011;19795;53.160;6.612;2023-07-13T10:27:16;867.85;;;797.75;;
33459;SDS011;19795;53.160;6.612;2023-07-13T10:32:13;835.83;;;770.80;;
33459;SDS011;19795;53.160;6.612;2023-07-13T10:34:43;805.15;;;742.08;;
33459;SDS011;19795;53.160;6.612;2023-07-13T10:37:19;753.38;;;698.50;;
33459;SDS011;19795;53.160;6.612;2023-07-13T10:39:47;731.90;;;680.47;;
33459;SDS011;19795;53.160;6.612;2023-07-13T10:42:21;736.85;;;683.88;;
33459;SDS011;19795;53.160;6.612;2023-07-13T10:44:54;756.80;;;702.20;;
33459;SDS011;19795;53.160;6.612;2023-07-13T10:47:19;726.78;;;678.22;;
33459;SDS011;19795;53.160;6.612;2023-07-13T10:49:45;867.65;;;801.03;;
33459;SDS011;19795;53.160;6.612;2023-07-13T10:58:03;742.42;;;690.67;;
33459;SDS011;19795;53.160;6.612;2023-07-13T11:03:36;841.10;;;773.08;;
33459;SDS011;19795;53.160;6.612;2023-07-13T11:06:12;912.75;;;828.10;;
33459;SDS011;19795;53.160;6.612;2023-07-13T11:13:59;850.42;;;786.83;;
33459;SDS011;19795;53.160;6.612;2023-07-13T11:16:34;750.75;;;699.47;;
33459;SDS011;19795;53.160;6.612;2023-07-13T11:22:42;869.58;;;803.53;;
33459;SDS011;19795;53.160;6.612;2023-07-13T11:32:38;625.13;;;586.40;;
33459;SDS011;19795;53.160;6.612;2023-07-13T11:35:04;799.13;;;709.17;;
33459;SDS011;19795;53.160;6.612;2023-07-13T11:37:34;861.78;;;756.38;;
33459;SDS011;19795;53.160;6.612;2023-07-13T11:40:00;673.55;;;628.72;;
33459;SDS011;19795;53.160;6.612;2023-07-13T11:42:26;722.00;;;672.58;;
33459;SDS011;19795;53.160;6.612;2023-07-13T11:44:52;624.60;;;585.58;;
33459;SDS011;19795;53.160;6.612;2023-07-13T11:47:20;633.00;;;589.65;;
33459;SDS011;19795;53.160;6.612;2023-07-13T11:49:52;778.88;;;725.80;;
33459;SDS011;19795;53.160;6.612;2023-07-13T11:54:49;686.67;;;640.70;;
33459;SDS011;19795;53.160;6.612;2023-07-13T12:00:29;635.13;;;594.40;;
33459;SDS011;19795;53.160;6.612;2023-07-13T12:02:59;704.53;;;656.38;;
33459;SDS011;19795;53.160;6.612;2023-07-13T12:05:27;690.05;;;642.92;;
33459;SDS011;19795;53.160;6.612;2023-07-13T12:07:54;716.60;;;664.70;;
33459;SDS011;19795;53.160;6.612;2023-07-13T12:10:24;990.03;;;751.75;;
33459;SDS011;19795;53.160;6.612;2023-07-13T12:12:59;889.30;;;807.67;;
33459;SDS011;19795;53.160;6.612;2023-07-13T12:15:39;856.63;;;713.95;;
33459;SDS011;19795;53.160;6.612;2023-07-13T12:18:28;662.88;;;621.90;;
33459;SDS011;19795;53.160;6.612;2023-07-13T12:20:55;720.65;;;651.30;;
33459;SDS011;19795;53.160;6.612;2023-07-13T12:23:25;658.88;;;613.88;;
33459;SDS011;19795;53.160;6.612;2023-07-13T12:25:55;648.00;;;606.45;;
33459;SDS011;19795;53.160;6.612;2023-07-13T12:28:33;885.97;;;813.10;;
33459;SDS011;19795;53.160;6.612;2023-07-13T12:31:02;742.28;;;680.28;;
33459;SDS011;19795;53.160;6.612;2023-07-13T12:33:31;564.83;;;518.90;;
33459;SDS011;19795;53.160;6.612;2023-07-13T12:36:02;794.60;;;724.80;;
33459;SDS011;19795;53.160;6.612;2023-07-13T12:38:31;414.95;;;390.75;;
33459;SDS011;19795;53.160;6.612;2023-07-13T12:40:57;605.05;;;567.08;;
33459;SDS011;19795;53.160;6.612;2023-07-13T12:43:24;697.88;;;650.95;;
33459;SDS011;19795;53.160;6.612;2023-07-13T12:46:02;557.17;;;526.00;;
33459;SDS011;19795;53.160;6.612;2023-07-13T12:48:37;853.40;;;763.63;;
33459;SDS011;19795;53.160;6.612;2023-07-13T12:51:08;685.53;;;601.88;;
33459;SDS011;19795;53.160;6.612;2023-07-13T12:53:39;518.33;;;489.45;;
33459;SDS011;19795;53.160;6.612;2023-07-13T12:56:08;622.13;;;584.17;;
33459;SDS011;19795;53.160;6.612;2023-07-13T12:58:50;747.33;;;697.58;;
33459;SDS011;19795;53.160;6.612;2023-07-13T13:01:22;697.25;;;653.92;;
33459;SDS011;19795;53.160;6.612;2023-07-13T13:03:51;794.50;;;735.88;;
33459;SDS011;19795;53.160;6.612;2023-07-13T13:08:48;792.10;;;730.13;;
33459;SDS011;19795;53.160;6.612;2023-07-13T13:11:15;995.58;;;776.58;;
33459;SDS011;19795;53.160;6.612;2023-07-13T13:13:42;766.00;;;685.95;;
33459;SDS011;19795;53.160;6.612;2023-07-13T13:16:09;683.55;;;636.83;;
33459;SDS011;19795;53.160;6.612;2023-07-13T13:18:39;676.35;;;632.70;;
33459;SDS011;19795;53.160;6.612;2023-07-13T13:21:05;582.88;;;546.78;;
33459;SDS011;19795;53.160;6.612;2023-07-13T13:23:30;814.08;;;749.35;;
33459;SDS011;19795;53.160;6.612;2023-07-13T13:25:56;698.72;;;652.40;;
33459;SDS011;19795;53.160;6.612;2023-07-13T13:28:23;691.42;;;646.83;;
33459;SDS011;19795;53.160;6.612;2023-07-13T13:30:49;645.83;;;605.72;;
33459;SDS011;19795;53.160;6.612;2023-07-13T13:33:17;668.22;;;625.20;;
33459;SDS011;19795;53.160;6.612;2023-07-13T13:35:44;723.60;;;672.70;;
33459;SDS011;19795;53.160;6.612;2023-07-13T13:38:11;630.65;;;590.40;;
33459;SDS011;19795;53.160;6.612;2023-07-13T13:40:50;736.65;;;678.53;;
33459;SDS011;19795;53.160;6.612;2023-07-13T13:43:21;1296.30;;;758.55;;
33459;SDS011;19795;53.160;6.612;2023-07-13T13:45:52;761.50;;;694.92;;
33459;SDS011;19795;53.160;6.612;2023-07-13T13:48:25;747.13;;;677.33;;
33459;SDS011;19795;53.160;6.612;2023-07-13T13:50:56;882.22;;;758.20;;
33459;SDS011;19795;53.160;6.612;2023-07-13T13:53:23;740.50;;;685.85;;
33459;SDS011;19795;53.160;6.612;2023-07-13T13:55:49;848.33;;;785.58;;
33459;SDS011;19795;53.160;6.612;2023-07-13T13:58:15;881.22;;;807.35;;
33459;SDS011;19795;53.160;6.612;2023-07-13T14:00:41;727.60;;;677.70;;
33459;SDS011;19795;53.160;6.612;2023-07-13T14:03:14;846.65;;;779.30;;
33459;SDS011;19795;53.160;6.612;2023-07-13T14:05:41;651.95;;;608.80;;
33459;SDS011;19795;53.160;6.612;2023-07-13T14:08:14;824.00;;;756.42;;
33459;SDS011;19795;53.160;6.612;2023-07-13T14:10:44;847.33;;;761.00;;
33459;SDS011;19795;53.160;6.612;2023-07-13T14:13:24;771.60;;;711.47;;
33459;SDS011;19795;53.160;6.612;2023-07-13T14:15:53;841.50;;;777.20;;
33459;SDS011;19795;53.160;6.612;2023-07-13T14:18:19;946.28;;;848.72;;
33459;SDS011;19795;53.160;6.612;2023-07-13T14:20:45;863.42;;;792.97;;
33459;SDS011;19795;53.160;6.612;2023-07-13T14:23:13;835.67;;;772.65;;
33459;SDS011;19795;53.160;6.612;2023-07-13T14:25:40;907.97;;;834.53;;
33459;SDS011;19795;53.160;6.612;2023-07-13T14:28:15;883.40;;;815.00;;
33459;SDS011;19795;53.160;6.612;2023-07-13T14:30:45;731.67;;;680.28;;
33459;SDS011;19795;53.160;6.612;2023-07-13T14:33:12;850.75;;;782.80;;
33459;SDS011;19795;53.160;6.612;2023-07-13T14:35:38;878.60;;;810.20;;
33459;SDS011;19795;53.160;6.612;2023-07-13T14:38:04;903.38;;;811.83;;
33459;SDS011;19795;53.160;6.612;2023-07-13T14:40:30;820.30;;;759.67;;
33459;SDS011;19795;53.160;6.612;2023-07-13T14:42:57;785.35;;;730.15;;
33459;SDS011;19795;53.160;6.612;2023-07-13T14:45:23;919.90;;;831.50;;
33459;SDS011;19795;53.160;6.612;2023-07-13T14:47:50;725.00;;;675.97;;
33459;SDS011;19795;53.160;6.612;2023-07-13T14:50:17;700.55;;;653.53;;
33459;SDS011;19795;53.160;6.612;2023-07-13T14:52:45;736.80;;;687.47;;
33459;SDS011;19795;53.160;6.612;2023-07-13T14:55:16;700.55;;;654.45;;
33459;SDS011;19795;53.160;6.612;2023-07-13T14:57:42;991.38;;;898.80;;
33459;SDS011;19795;53.160;6.612;2023-07-13T15:02:42;920.25;;;829.25;;
33459;SDS011;19795;53.160;6.612;2023-07-13T15:05:17;900.03;;;816.80;;
33459;SDS011;19795;53.160;6.612;2023-07-13T15:07:44;738.03;;;682.38;;
33459;SDS011;19795;53.160;6.612;2023-07-13T15:10:14;1261.93;;;646.08;;
33459;SDS011;19795;53.160;6.612;2023-07-13T15:12:47;761.17;;;683.22;;
33459;SDS011;19795;53.160;6.612;2023-07-13T15:15:13;1999.90;;;999.90;;
33459;SDS011;19795;53.160;6.612;2023-07-13T15:17:40;796.50;;;738.67;;
33459;SDS011;19795;53.160;6.612;2023-07-13T15:20:21;724.10;;;674.00;;
33459;SDS011;19795;53.160;6.612;2023-07-13T15:22:57;805.83;;;747.67;;
33459;SDS011;19795;53.160;6.612;2023-07-13T15:25:24;896.03;;;822.42;;
33459;SDS011;19795;53.160;6.612;2023-07-13T15:27:52;616.42;;;577.80;;
33459;SDS011;19795;53.160;6.612;2023-07-13T15:30:18;748.35;;;697.22;;
33459;SDS011;19795;53.160;6.612;2023-07-13T15:32:45;680.10;;;635.53;;
33459;SDS011;19795;53.160;6.612;2023-07-13T15:35:16;690.00;;;644.20;;
33459;SDS011;19795;53.160;6.612;2023-07-13T15:37:43;629.85;;;588.65;;
33459;SDS011;19795;53.160;6.612;2023-07-13T15:40:09;762.92;;;707.28;;
33459;SDS011;19795;53.160;6.612;2023-07-13T15:42:36;692.15;;;646.75;;
33459;SDS011;19795;53.160;6.612;2023-07-13T15:45:04;853.92;;;784.25;;
33459;SDS011;19795;53.160;6.612;2023-07-13T15:47:31;880.45;;;810.88;;
33459;SDS011;19795;53.160;6.612;2023-07-13T15:49:57;908.95;;;828.80;;
33459;SDS011;19795;53.160;6.612;2023-07-13T15:52:23;908.33;;;825.45;;
33459;SDS011;19795;53.160;6.612;2023-07-13T15:54:49;766.30;;;710.75;;
33459;SDS011;19795;53.160;6.612;2023-07-13T15:57:16;856.13;;;788.53;;
33459;SDS011;19795;53.160;6.612;2023-07-13T15:59:42;830.35;;;763.20;;
33459;SDS011;19795;53.160;6.612;2023-07-13T16:02:11;753.10;;;699.60;;
33459;SDS011;19795;53.160;6.612;2023-07-13T16:04:42;869.05;;;798.25;;
33459;SDS011;19795;53.160;6.612;2023-07-13T16:07:11;970.55;;;883.65;;
33459;SDS011;19795;53.160;6.612;2023-07-13T16:09:40;998.88;;;899.35;;
33459;SDS011;19795;53.160;6.612;2023-07-13T16:12:12;843.95;;;779.25;;
33459;SDS011;19795;53.160;6.612;2023-07-13T16:14:40;893.38;;;817.38;;
33459;SDS011;19795;53.160;6.612;2023-07-13T16:17:09;932.42;;;853.80;;
33459;SDS011;19795;53.160;6.612;2023-07-13T16:19:36;831.10;;;766.50;;
33459;SDS011;19795;53.160;6.612;2023-07-13T16:22:02;694.53;;;646.25;;
33459;SDS011;19795;53.160;6.612;2023-07-13T16:24:30;838.30;;;772.42;;
33459;SDS011;19795;53.160;6.612;2023-07-13T16:26:56;953.33;;;861.13;;
33459;SDS011;19795;53.160;6.612;2023-07-13T16:29:25;880.42;;;811.95;;
33459;SDS011;19795;53.160;6.612;2023-07-13T16:34:28;975.45;;;872.13;;
33459;SDS011;19795;53.160;6.612;2023-07-13T16:36:54;901.58;;;821.28;;
33459;SDS011;19795;53.160;6.612;2023-07-13T16:39:21;898.25;;;819.33;;
33459;SDS011;19795;53.160;6.612;2023-07-13T16:41:51;919.80;;;841.10;;
33459;SDS011;19795;53.160;6.612;2023-07-13T16:44:19;918.03;;;831.40;;
33459;SDS011;19795;53.160;6.612;2023-07-13T16:46:46;922.92;;;843.78;;
33459;SDS011;19795;53.160;6.612;2023-07-13T16:49:34;818.42;;;754.78;;
33459;SDS011;19795;53.160;6.612;2023-07-13T16:52:02;840.75;;;774.30;;
33459;SDS011;19795;53.160;6.612;2023-07-13T16:54:29;971.90;;;869.90;;
33459;SDS011;19795;53.160;6.612;2023-07-13T16:56:57;953.65;;;868.15;;
33459;SDS011;19795;53.160;6.612;2023-07-13T16:59:30;911.03;;;831.35;;
33459;SDS011;19795;53.160;6.612;2023-07-13T17:01:57;744.38;;;692.85;;
33459;SDS011;19795;53.160;6.612;2023-07-13T17:04:26;791.83;;;736.30;;
33459;SDS011;19795;53.160;6.612;2023-07-13T17:06:54;671.33;;;628.72;;
33459;SDS011;19795;53.160;6.612;2023-07-13T17:09:23;704.90;;;658.40;;
33459;SDS011;19795;53.160;6.612;2023-07-13T17:11:49;738.65;;;689.75;;
33459;SDS011;19795;53.160;6.612;2023-07-13T17:14:19;764.92;;;714.00;;
33459;SDS011;19795;53.160;6.612;2023-07-13T17:16:52;599.65;;;563.30;;
33459;SDS011;19795;53.160;6.612;2023-07-13T17:19:21;715.83;;;668.75;;
33459;SDS011;19795;53.160;6.612;2023-07-13T17:21:52;701.08;;;654.78;;
33459;SDS011;19795;53.160;6.612;2023-07-13T17:24:19;641.65;;;600.28;;
33459;SDS011;19795;53.160;6.612;2023-07-13T17:26:47;687.78;;;644.50;;
33459;SDS011;19795;53.160;6.612;2023-07-13T17:29:15;722.33;;;674.45;;
33459;SDS011;19795;53.160;6.612;2023-07-13T17:31:42;649.50;;;608.95;;
33459;SDS011;19795;53.160;6.612;2023-07-13T17:34:10;759.10;;;706.65;;
33459;SDS011;19795;53.160;6.612;2023-07-13T17:36:42;584.67;;;549.45;;
33459;SDS011;19795;53.160;6.612;2023-07-13T17:39:16;772.67;;;719.85;;
33459;SDS011;19795;53.160;6.612;2023-07-13T17:41:43;677.90;;;634.28;;
33459;SDS011;19795;53.160;6.612;2023-07-13T17:44:10;743.38;;;694.50;;
33459;SDS011;19795;53.160;6.612;2023-07-13T17:46:38;660.85;;;620.72;;
33459;SDS011;19795;53.160;6.612;2023-07-13T17:49:04;727.15;;;671.72;;
33459;SDS011;19795;53.160;6.612;2023-07-13T17:51:31;807.50;;;733.03;;
33459;SDS011;19795;53.160;6.612;2023-07-13T17:53:57;539.63;;;507.77;;
33459;SDS011;19795;53.160;6.612;2023-07-13T17:56:23;583.17;;;547.72;;
33459;SDS011;19795;53.160;6.612;2023-07-13T17:58:52;871.50;;;795.35;;
33459;SDS011;19795;53.160;6.612;2023-07-13T18:01:19;729.78;;;678.67;;
33459;SDS011;19795;53.160;6.612;2023-07-13T18:03:47;728.63;;;679.58;;
33459;SDS011;19795;53.160;6.612;2023-07-13T18:06:26;828.13;;;759.28;;
33459;SDS011;19795;53.160;6.612;2023-07-13T18:08:58;720.47;;;670.92;;
33459;SDS011;19795;53.160;6.612;2023-07-13T18:11:25;646.05;;;604.80;;
33459;SDS011;19795;53.160;6.612;2023-07-13T18:13:51;723.15;;;675.50;;
33459;SDS011;19795;53.160;6.612;2023-07-13T18:16:24;718.92;;;670.03;;
33459;SDS011;19795;53.160;6.612;2023-07-13T18:18:55;657.45;;;613.25;;
33459;SDS011;19795;53.160;6.612;2023-07-13T18:21:23;678.33;;;632.97;;
33459;SDS011;19795;53.160;6.612;2023-07-13T18:23:51;752.90;;;699.90;;
33459;SDS011;19795;53.160;6.612;2023-07-13T18:26:17;810.67;;;721.97;;
33459;SDS011;19795;53.160;6.612;2023-07-13T18:28:44;776.30;;;719.22;;
33459;SDS011;19795;53.160;6.612;2023-07-13T18:31:14;829.40;;;765.10;;
33459;SDS011;19795;53.160;6.612;2023-07-13T18:33:45;881.22;;;810.40;;
33459;SDS011;19795;53.160;6.612;2023-07-13T18:36:15;780.67;;;722.80;;
33459;SDS011;19795;53.160;6.612;2023-07-13T18:38:42;915.67;;;835.03;;
33459;SDS011;19795;53.160;6.612;2023-07-13T18:41:12;776.15;;;718.30;;
33459;SDS011;19795;53.160;6.612;2023-07-13T18:43:41;761.15;;;705.72;;
33459;SDS011;19795;53.160;6.612;2023-07-13T18:46:29;891.53;;;820.50;;
33459;SDS011;19795;53.160;6.612;2023-07-13T18:48:57;875.65;;;803.60;;
33459;SDS011;19795;53.160;6.612;2023-07-13T18:51:23;878.75;;;808.08;;
33459;SDS011;19795;53.160;6.612;2023-07-13T18:53:49;868.95;;;797.67;;